Aviation Digital Data Service (ADDS)

Output produced by METARs form (1911 UTC 24 April 2017)
found at http://aviationweather.gov/adds/metars/
 
KSYR 241720Z 2418/2518 01005KT P6SM FEW250 
     FM250700 12009KT P6SM SCT150 
     FM251400 10011G20KT P6SM OVC040 
     FM251500 10012G22KT P6SM -RA OVC035